createdAt,value
2023-04-13T00:00:13.248Z,99.90
2023-04-13T00:02:40.327Z,99.90
2023-04-13T00:05:10.319Z,99.90
2023-04-13T00:07:41.161Z,99.90
2023-04-13T00:10:09.994Z,99.90
2023-04-13T00:12:37.977Z,99.90
2023-04-13T00:15:05.826Z,99.90
2023-04-13T00:17:33.671Z,99.90
2023-04-13T00:20:00.654Z,99.90
2023-04-13T00:22:30.417Z,99.90
2023-04-13T00:24:57.726Z,99.90
2023-04-13T00:27:27.824Z,99.90
2023-04-13T00:29:57.696Z,99.90
2023-04-13T00:32:25.771Z,99.90
2023-04-13T00:34:53.071Z,99.90
2023-04-13T00:37:21.550Z,99.90
2023-04-13T00:39:48.379Z,99.90
2023-04-13T00:42:18.087Z,99.90
2023-04-13T00:44:44.829Z,99.90
2023-04-13T00:47:12.226Z,99.90
2023-04-13T00:49:39.892Z,99.90
2023-04-13T00:52:08.412Z,99.90
2023-04-13T00:54:35.679Z,99.90
2023-04-13T00:57:02.531Z,99.90
2023-04-13T00:59:30.266Z,99.90
2023-04-13T01:01:57.329Z,99.90
2023-04-13T01:04:30.367Z,99.90
2023-04-13T01:07:20.001Z,99.90
2023-04-13T01:10:08.860Z,99.90
2023-04-13T01:12:47.043Z,99.90
2023-04-13T01:15:16.313Z,99.90
2023-04-13T01:17:52.192Z,99.90
2023-04-13T01:20:24.431Z,99.90
2023-04-13T01:22:55.869Z,99.90
2023-04-13T01:25:38.494Z,99.90
2023-04-13T01:28:16.749Z,99.90
2023-04-13T01:30:45.130Z,99.90
2023-04-13T01:33:14.137Z,99.90
2023-04-13T01:35:42.158Z,99.90
2023-04-13T01:38:14.358Z,99.90
2023-04-13T01:40:41.918Z,99.90
2023-04-13T01:43:10.542Z,99.90
2023-04-13T01:46:09.966Z,99.90
2023-04-13T01:48:49.544Z,99.90
2023-04-13T01:51:45.287Z,99.90
2023-04-13T01:54:23.101Z,99.90
2023-04-13T01:56:50.799Z,99.90
2023-04-13T01:59:17.843Z,99.90
2023-04-13T02:02:00.401Z,99.90
2023-04-13T02:04:28.109Z,99.90
2023-04-13T02:06:54.910Z,99.90
2023-04-13T02:09:29.750Z,99.90
2023-04-13T02:11:56.544Z,99.90
2023-04-13T02:14:23.323Z,99.90
2023-04-13T02:16:50.790Z,99.90
2023-04-13T02:19:17.678Z,99.90
2023-04-13T02:21:44.851Z,99.90
2023-04-13T02:24:11.887Z,99.90
2023-04-13T02:26:38.947Z,99.90
2023-04-13T02:29:05.712Z,99.90
2023-04-13T02:31:33.743Z,99.90
2023-04-13T02:34:00.806Z,99.90
2023-04-13T02:36:29.295Z,99.90
2023-04-13T02:39:00.691Z,99.90
2023-04-13T02:41:32.829Z,99.90
2023-04-13T02:43:59.982Z,99.90
2023-04-13T02:46:32.103Z,99.90
2023-04-13T02:49:05.154Z,99.90
2023-04-13T02:51:38.169Z,99.90
2023-04-13T02:54:05.210Z,99.90
2023-04-13T02:56:37.992Z,99.90
2023-04-13T02:59:06.316Z,99.90
2023-04-13T03:01:33.125Z,99.90
2023-04-13T03:04:01.194Z,99.90
2023-04-13T03:06:29.410Z,99.90
2023-04-13T03:08:59.476Z,99.90
2023-04-13T03:11:28.075Z,99.90
2023-04-13T03:14:13.213Z,99.90
2023-04-13T03:16:41.716Z,99.90
2023-04-13T03:19:12.152Z,99.90
2023-04-13T03:21:45.743Z,99.90
2023-04-13T03:24:16.314Z,99.90
2023-04-13T03:26:44.108Z,99.90
2023-04-13T03:29:14.784Z,99.90
2023-04-13T03:31:44.842Z,99.90
2023-04-13T03:34:12.483Z,99.90
2023-04-13T03:36:41.449Z,99.90
2023-04-13T03:39:08.580Z,99.90
2023-04-13T03:41:37.761Z,99.90
2023-04-13T03:44:05.060Z,99.90
2023-04-13T03:46:33.192Z,99.90
2023-04-13T03:49:08.540Z,99.90
2023-04-13T03:51:39.586Z,99.90
2023-04-13T03:54:06.922Z,99.90
2023-04-13T03:56:36.932Z,99.90
2023-04-13T03:59:04.129Z,99.90
2023-04-13T04:01:31.158Z,99.90
2023-04-13T04:03:58.587Z,99.90
2023-04-13T04:06:29.765Z,99.90
2023-04-13T04:09:07.454Z,99.90
2023-04-13T04:11:40.729Z,99.90
2023-04-13T04:14:09.262Z,99.90
2023-04-13T04:16:36.782Z,99.90
2023-04-13T04:19:09.616Z,99.90
2023-04-13T04:21:36.962Z,99.90
2023-04-13T04:24:12.377Z,99.90
2023-04-13T04:26:40.969Z,99.90
2023-04-13T04:29:09.863Z,99.90
2023-04-13T04:31:43.606Z,99.90
2023-04-13T04:34:16.889Z,99.90
2023-04-13T04:36:45.538Z,99.90
2023-04-13T04:39:14.357Z,99.90
2023-04-13T04:41:54.269Z,99.90
2023-04-13T04:44:25.026Z,99.90
2023-04-13T04:46:52.652Z,99.90
2023-04-13T04:49:21.547Z,99.90
2023-04-13T04:51:49.969Z,99.90
2023-04-13T04:54:18.395Z,99.90
2023-04-13T04:56:50.638Z,99.90
2023-04-13T04:59:22.319Z,99.90
2023-04-13T05:01:56.884Z,99.90
2023-04-13T05:04:23.668Z,99.90
2023-04-13T05:06:50.604Z,99.90
2023-04-13T05:09:21.825Z,99.90
2023-04-13T05:11:52.859Z,99.90
2023-04-13T05:14:21.086Z,99.90
2023-04-13T05:16:48.322Z,99.90
2023-04-13T05:19:23.205Z,99.90
2023-04-13T05:21:52.667Z,99.90
2023-04-13T05:24:19.423Z,99.90
2023-04-13T05:26:47.281Z,99.90
2023-04-13T05:29:20.342Z,99.90
2023-04-13T05:31:47.914Z,99.90
2023-04-13T05:34:14.948Z,99.90
2023-04-13T05:36:50.281Z,99.90
2023-04-13T05:39:17.083Z,99.90
2023-04-13T05:41:43.773Z,99.90
2023-04-13T05:44:11.554Z,99.90
2023-04-13T05:46:38.590Z,99.90
2023-04-13T05:49:06.377Z,99.90
2023-04-13T05:51:34.807Z,99.90
2023-04-13T05:54:02.285Z,99.90
2023-04-13T05:56:34.227Z,99.90
2023-04-13T05:59:01.235Z,99.90
2023-04-13T06:01:29.781Z,99.90
2023-04-13T06:03:57.183Z,99.90
2023-04-13T06:06:24.991Z,99.90
2023-04-13T06:08:53.086Z,99.90
2023-04-13T06:11:20.969Z,99.90
2023-04-13T06:13:47.799Z,99.90
2023-04-13T06:16:15.518Z,99.90
2023-04-13T06:18:43.075Z,99.90
2023-04-13T06:21:10.046Z,99.90
2023-04-13T06:23:37.561Z,99.90
2023-04-13T06:26:12.630Z,99.90
2023-04-13T06:28:45.496Z,99.90
2023-04-13T06:31:13.723Z,99.90
2023-04-13T06:33:43.329Z,99.90
2023-04-13T06:36:11.198Z,99.90
2023-04-13T06:38:37.896Z,99.90
2023-04-13T06:41:08.932Z,99.90
2023-04-13T06:43:39.264Z,99.90
2023-04-13T06:46:14.822Z,99.90
2023-04-13T06:48:44.114Z,99.90
2023-04-13T06:51:12.639Z,99.90
2023-04-13T06:53:41.459Z,99.90
2023-04-13T06:56:08.547Z,99.90
2023-04-13T06:58:36.754Z,99.90
2023-04-13T07:01:04.709Z,99.90
2023-04-13T07:03:34.241Z,99.90
2023-04-13T07:06:02.763Z,99.90
2023-04-13T07:08:29.712Z,99.90
2023-04-13T07:10:58.072Z,99.90
2023-04-13T07:13:34.056Z,99.90
2023-04-13T07:16:01.168Z,99.90
2023-04-13T07:18:28.016Z,99.90
2023-04-13T07:20:54.975Z,99.90
2023-04-13T07:23:32.598Z,99.90
2023-04-13T07:26:01.548Z,99.90
2023-04-13T07:28:30.863Z,99.90
2023-04-13T07:30:59.106Z,99.90
2023-04-13T07:33:26.065Z,99.90
2023-04-13T07:35:55.501Z,99.90
2023-04-13T07:38:25.350Z,99.90
2023-04-13T07:40:52.688Z,99.90
2023-04-13T07:43:20.842Z,99.90
2023-04-13T07:45:48.118Z,99.90
2023-04-13T07:48:15.998Z,99.90
2023-04-13T07:50:43.958Z,99.90
2023-04-13T07:53:16.293Z,99.90
2023-04-13T07:55:43.355Z,99.90
2023-04-13T07:58:10.543Z,99.90
2023-04-13T08:00:37.906Z,99.90
2023-04-13T08:03:07.160Z,99.90
2023-04-13T08:05:36.696Z,99.90
2023-04-13T08:08:03.609Z,99.90
2023-04-13T08:10:30.570Z,99.90
2023-04-13T08:13:00.225Z,99.90
2023-04-13T08:15:27.281Z,99.90
2023-04-13T08:17:54.466Z,99.90
2023-04-13T08:20:22.866Z,99.90
2023-04-13T08:22:52.183Z,99.90
2023-04-13T08:25:20.476Z,99.90
2023-04-13T08:27:47.277Z,99.90
2023-04-13T08:30:14.422Z,99.90
2023-04-13T08:32:49.112Z,99.90
2023-04-13T08:35:16.553Z,99.90
2023-04-13T08:37:43.578Z,99.90
2023-04-13T08:40:12.169Z,99.90
2023-04-13T08:42:41.445Z,99.90
2023-04-13T08:45:09.186Z,99.90
2023-04-13T08:47:40.989Z,99.90
2023-04-13T08:50:09.062Z,99.90
2023-04-13T08:52:40.135Z,99.90
2023-04-13T08:55:07.194Z,99.90
2023-04-13T08:57:36.595Z,99.90
2023-04-13T09:00:11.441Z,99.90
2023-04-13T09:02:49.221Z,99.90
2023-04-13T09:05:28.754Z,99.90
2023-04-13T09:08:04.250Z,99.90
2023-04-13T09:10:31.281Z,99.90
2023-04-13T09:12:58.081Z,99.90
2023-04-13T09:15:25.895Z,99.90
2023-04-13T09:18:12.644Z,99.90
2023-04-13T09:20:55.723Z,99.90
2023-04-13T09:23:22.578Z,99.90
2023-04-13T09:25:50.401Z,99.90
2023-04-13T09:28:19.584Z,99.90
2023-04-13T09:30:48.203Z,99.90
2023-04-13T09:33:16.968Z,99.90
2023-04-13T09:35:43.757Z,99.90
2023-04-13T09:38:15.305Z,99.90
2023-04-13T09:40:49.548Z,99.90
2023-04-13T09:43:17.107Z,99.90
2023-04-13T09:45:44.456Z,99.90
2023-04-13T09:48:21.986Z,99.90
2023-04-13T09:51:02.755Z,99.90
2023-04-13T09:53:42.386Z,99.90
2023-04-13T09:56:10.485Z,99.90
2023-04-13T09:58:45.537Z,99.90
2023-04-13T10:01:12.939Z,99.90
2023-04-13T10:03:39.747Z,99.90
2023-04-13T10:06:10.289Z,99.90
2023-04-13T10:08:39.209Z,99.90
2023-04-13T10:11:16.047Z,99.90
2023-04-13T10:13:58.801Z,99.90
2023-04-13T10:16:31.926Z,99.90
2023-04-13T10:19:07.816Z,99.90
2023-04-13T10:21:43.783Z,99.90
2023-04-13T10:24:12.741Z,99.90
2023-04-13T10:26:41.941Z,99.90
2023-04-13T10:29:10.172Z,99.90
2023-04-13T10:31:39.910Z,99.90
2023-04-13T10:34:10.678Z,99.90
2023-04-13T10:36:42.511Z,99.90
2023-04-13T10:39:10.561Z,99.90
2023-04-13T10:41:37.997Z,99.90
2023-04-13T10:44:07.050Z,99.90
2023-04-13T10:46:35.448Z,99.90
2023-04-13T10:49:03.619Z,99.90
2023-04-13T10:51:45.350Z,99.90
2023-04-13T10:54:13.870Z,99.90
2023-04-13T10:56:40.837Z,99.90
2023-04-13T10:59:08.210Z,99.90
2023-04-13T11:01:35.851Z,99.90
2023-04-13T11:04:07.876Z,99.90
2023-04-13T11:06:40.033Z,99.90
2023-04-13T11:09:07.894Z,99.90
2023-04-13T11:11:37.239Z,99.90
2023-04-13T11:14:04.440Z,99.90
2023-04-13T11:16:31.374Z,99.90
2023-04-13T11:19:05.050Z,99.90
2023-04-13T11:21:31.869Z,99.90
2023-04-13T11:24:02.462Z,99.90
2023-04-13T11:26:34.799Z,99.90
2023-04-13T11:29:03.451Z,99.90
2023-04-13T11:31:40.541Z,99.90
2023-04-13T11:34:09.749Z,99.90
2023-04-13T11:36:39.023Z,99.90
2023-04-13T11:39:10.754Z,99.90
2023-04-13T11:41:42.159Z,99.90
2023-04-13T11:44:11.958Z,99.90
2023-04-13T11:46:38.778Z,99.90
2023-04-13T11:49:05.596Z,99.90
2023-04-13T11:51:33.170Z,99.90
2023-04-13T11:54:01.070Z,99.90
2023-04-13T11:56:28.049Z,99.90
2023-04-13T11:58:55.327Z,99.90
2023-04-13T12:01:27.059Z,99.90
2023-04-13T12:04:13.919Z,99.90
2023-04-13T12:06:44.318Z,99.90
2023-04-13T12:09:15.927Z,99.90
2023-04-13T12:11:50.288Z,99.90
2023-04-13T12:19:24.718Z,99.90
2023-04-13T12:21:56.825Z,99.90
2023-04-13T12:24:39.198Z,99.90
2023-04-13T12:29:40.980Z,99.90
2023-04-13T12:32:15.055Z,99.90
2023-04-13T12:34:43.030Z,99.90
2023-04-13T12:37:11.540Z,99.90
2023-04-13T12:39:38.574Z,99.90
2023-04-13T12:42:05.528Z,99.90
2023-04-13T12:44:34.125Z,99.90
2023-04-13T12:47:01.778Z,99.90
2023-04-13T12:49:28.710Z,99.90
2023-04-13T12:51:55.534Z,99.90
2023-04-13T12:54:22.202Z,99.90
2023-04-13T12:56:48.865Z,99.90
2023-04-13T12:59:16.655Z,99.90
2023-04-13T13:01:43.494Z,99.90
2023-04-13T13:04:10.500Z,99.90
2023-04-13T13:06:38.021Z,99.90
2023-04-13T13:09:05.769Z,99.90
2023-04-13T13:11:32.471Z,99.90
2023-04-13T13:13:59.319Z,99.90
2023-04-13T13:16:26.686Z,99.90
2023-04-13T13:18:53.497Z,99.90
2023-04-13T13:21:21.198Z,99.90
2023-04-13T13:23:48.124Z,99.90
2023-04-13T13:28:45.057Z,99.90
2023-04-13T13:31:12.735Z,99.90
2023-04-13T13:33:39.533Z,99.90
2023-04-13T13:36:07.592Z,99.90
2023-04-13T13:38:36.449Z,99.90
2023-04-13T13:41:03.568Z,99.90
2023-04-13T13:43:30.339Z,99.90
2023-04-13T13:45:57.135Z,99.90
2023-04-13T13:48:24.318Z,99.90
2023-04-13T13:51:00.452Z,99.90
2023-04-13T13:53:31.663Z,99.90
2023-04-13T13:55:58.338Z,99.90
2023-04-13T13:58:25.012Z,99.90
2023-04-13T14:00:51.746Z,99.90
2023-04-13T14:03:18.831Z,99.90
2023-04-13T14:05:45.798Z,99.90
2023-04-13T14:08:12.585Z,99.90
2023-04-13T14:10:39.483Z,99.90
2023-04-13T14:13:06.427Z,99.90
2023-04-13T14:15:33.346Z,99.90
2023-04-13T14:18:09.299Z,99.80
2023-04-13T14:20:41.393Z,99.90
2023-04-13T14:23:09.562Z,99.90
2023-04-13T14:25:37.233Z,99.90
2023-04-13T14:28:04.194Z,99.90
2023-04-13T14:30:30.931Z,99.90
2023-04-13T14:32:57.910Z,99.90
2023-04-13T14:35:24.820Z,99.90
2023-04-13T14:37:52.790Z,99.90
2023-04-13T14:40:23.440Z,99.90
2023-04-13T14:42:52.771Z,99.90
2023-04-13T14:45:22.818Z,99.90
2023-04-13T14:47:49.991Z,99.90
2023-04-13T14:50:17.386Z,99.90
2023-04-13T14:52:45.920Z,99.90
2023-04-13T14:55:13.805Z,99.90
2023-04-13T14:57:41.519Z,99.90
2023-04-13T15:00:21.846Z,99.90
2023-04-13T15:02:51.109Z,99.90
2023-04-13T15:05:18.876Z,99.90
2023-04-13T15:07:46.276Z,99.90
2023-04-13T15:10:13.052Z,99.90
2023-04-13T15:12:40.893Z,99.90
2023-04-13T15:15:08.238Z,99.90
2023-04-13T15:17:35.166Z,99.80
2023-04-13T15:20:02.058Z,99.80
2023-04-13T15:22:30.946Z,99.90
2023-04-13T15:24:57.659Z,99.90
2023-04-13T15:27:26.765Z,99.00
2023-04-13T15:29:59.451Z,99.30
2023-04-13T15:32:26.389Z,99.80
2023-04-13T15:34:56.172Z,99.70
2023-04-13T15:37:26.365Z,99.40
2023-04-13T15:39:54.739Z,99.80
2023-04-13T15:42:22.351Z,99.80
2023-04-13T15:44:49.193Z,99.90
2023-04-13T15:47:15.968Z,99.90
2023-04-13T15:49:42.881Z,99.70
2023-04-13T15:52:09.562Z,99.90
2023-04-13T15:54:36.535Z,99.90
2023-04-13T15:57:03.159Z,99.20
2023-04-13T15:59:30.913Z,99.30
2023-04-13T16:01:57.813Z,99.20
2023-04-13T16:04:26.225Z,99.80
2023-04-13T16:07:09.019Z,99.30
2023-04-13T16:09:39.227Z,99.50
2023-04-13T16:12:12.525Z,99.10
2023-04-13T16:14:41.887Z,99.30
2023-04-13T16:17:09.489Z,99.80
2023-04-13T16:19:36.555Z,99.70
2023-04-13T16:22:07.132Z,99.60
2023-04-13T16:24:33.821Z,99.40
2023-04-13T16:27:00.909Z,99.60
2023-04-13T16:29:28.869Z,99.40
2023-04-13T16:31:58.663Z,99.90
2023-04-13T16:34:27.911Z,99.90
2023-04-13T16:36:54.689Z,99.90
2023-04-13T16:39:22.015Z,99.90
2023-04-13T16:41:48.861Z,99.90
2023-04-13T16:44:15.574Z,99.90
2023-04-13T16:46:42.293Z,99.90
2023-04-13T16:49:09.012Z,99.90
2023-04-13T16:51:35.854Z,99.90
2023-04-13T16:54:04.354Z,99.90
2023-04-13T16:56:31.153Z,99.90
2023-04-13T16:58:58.368Z,99.90
2023-04-13T17:01:26.279Z,99.90
2023-04-13T17:03:53.637Z,99.90
2023-04-13T17:06:21.366Z,99.90
2023-04-13T17:08:48.723Z,99.90
2023-04-13T17:11:15.509Z,99.90
2023-04-13T17:13:42.383Z,99.90
2023-04-13T17:16:09.697Z,99.90
2023-04-13T17:18:36.623Z,99.90
2023-04-13T17:21:03.405Z,99.90
2023-04-13T17:23:30.314Z,99.90
2023-04-13T17:25:57.077Z,99.90
2023-04-13T17:28:24.375Z,99.90
2023-04-13T17:30:51.339Z,99.90
2023-04-13T17:33:18.592Z,99.90
2023-04-13T17:35:45.226Z,99.90
2023-04-13T17:38:11.943Z,99.90
2023-04-13T17:40:38.638Z,99.90
2023-04-13T17:43:08.309Z,99.90
2023-04-13T17:45:35.087Z,99.90
2023-04-13T17:48:02.208Z,99.90
2023-04-13T17:50:31.012Z,99.90
2023-04-13T17:52:57.750Z,99.90
2023-04-13T17:55:24.431Z,99.90
2023-04-13T17:57:51.079Z,99.90
2023-04-13T18:00:18.699Z,99.90
2023-04-13T18:02:49.230Z,99.90
2023-04-13T18:05:18.136Z,99.90
2023-04-13T18:07:45.169Z,99.90
2023-04-13T18:10:12.015Z,99.90
2023-04-13T18:12:40.595Z,99.90
2023-04-13T18:15:08.669Z,99.90
2023-04-13T18:17:36.553Z,99.90
2023-04-13T18:20:04.256Z,99.90
2023-04-13T18:22:32.649Z,99.90
2023-04-13T18:24:59.620Z,99.90
2023-04-13T18:27:27.592Z,99.90
2023-04-13T18:29:55.036Z,99.90
2023-04-13T18:32:22.625Z,99.90
2023-04-13T18:34:49.635Z,99.90
2023-04-13T18:37:16.321Z,99.90
2023-04-13T18:39:43.133Z,99.90
2023-04-13T18:42:09.871Z,99.90
2023-04-13T18:44:36.545Z,99.90
2023-04-13T18:47:03.288Z,99.90
2023-04-13T18:49:29.972Z,99.90
2023-04-13T18:51:56.618Z,99.90
2023-04-13T18:54:23.366Z,99.90
2023-04-13T18:56:50.300Z,99.90
2023-04-13T18:59:17.336Z,99.90
2023-04-13T19:01:45.366Z,99.90
2023-04-13T19:04:12.215Z,99.90
2023-04-13T19:06:39.930Z,99.90
2023-04-13T19:09:06.987Z,99.90
2023-04-13T19:11:51.603Z,99.90
2023-04-13T19:14:18.331Z,99.90
2023-04-13T19:16:47.189Z,99.90
2023-04-13T19:19:15.064Z,99.90
2023-04-13T19:21:41.991Z,99.90
2023-04-13T19:24:11.205Z,99.90
2023-04-13T19:26:37.882Z,99.90
2023-04-13T19:29:04.658Z,99.90
2023-04-13T19:31:36.091Z,99.90
2023-04-13T19:34:02.953Z,99.90
2023-04-13T19:36:29.688Z,99.90
2023-04-13T19:38:56.421Z,99.90
2023-04-13T19:41:23.152Z,99.90
2023-04-13T19:43:51.009Z,99.90
2023-04-13T19:46:17.753Z,99.90
2023-04-13T19:48:44.738Z,99.90
2023-04-13T19:51:11.659Z,99.90
2023-04-13T19:53:38.550Z,99.90
2023-04-13T19:56:05.357Z,99.90
2023-04-13T19:58:32.048Z,99.90
2023-04-13T20:00:59.353Z,99.90
2023-04-13T20:03:26.637Z,99.90
2023-04-13T20:05:53.801Z,99.90
2023-04-13T20:08:20.709Z,99.90
2023-04-13T20:10:47.443Z,99.90
2023-04-13T20:13:14.106Z,99.90
2023-04-13T20:15:40.835Z,99.90
2023-04-13T20:18:08.493Z,99.90
2023-04-13T20:20:37.231Z,99.90
2023-04-13T20:23:04.630Z,99.90
2023-04-13T20:25:31.296Z,99.90
2023-04-13T20:27:57.970Z,99.90
2023-04-13T20:30:25.635Z,99.90
2023-04-13T20:32:52.363Z,99.90
2023-04-13T20:35:19.921Z,99.90
2023-04-13T20:37:46.563Z,99.90
2023-04-13T20:40:13.635Z,99.90
2023-04-13T20:42:45.275Z,99.90
2023-04-13T20:45:14.705Z,99.90
2023-04-13T20:47:42.586Z,99.90
2023-04-13T20:50:10.465Z,99.90
2023-04-13T20:52:37.228Z,99.90
2023-04-13T20:55:04.302Z,99.90
2023-04-13T20:57:31.717Z,99.90
2023-04-13T20:59:58.424Z,99.90
2023-04-13T21:02:25.207Z,99.90
2023-04-13T21:04:53.860Z,99.90
2023-04-13T21:07:22.243Z,99.90
2023-04-13T21:09:49.142Z,99.90
2023-04-13T21:12:16.932Z,99.90
2023-04-13T21:14:43.597Z,99.90
2023-04-13T21:17:10.301Z,99.90
2023-04-13T21:19:38.009Z,99.90
2023-04-13T21:22:04.812Z,99.90
2023-04-13T21:24:31.550Z,99.90
2023-04-13T21:26:58.448Z,99.90
2023-04-13T21:29:25.394Z,99.90
2023-04-13T21:31:52.253Z,99.90
2023-04-13T21:34:19.119Z,99.90
2023-04-13T21:39:16.286Z,99.90
2023-04-13T21:41:43.030Z,99.90
2023-04-13T21:44:22.548Z,99.90
2023-04-13T21:46:55.868Z,99.90
2023-04-13T21:49:22.616Z,99.90
2023-04-13T21:51:49.354Z,99.90
2023-04-13T21:54:16.059Z,99.90
2023-04-13T21:56:42.711Z,99.90
2023-04-13T21:59:09.357Z,99.90
2023-04-13T22:01:36.031Z,99.90
2023-04-13T22:04:02.789Z,99.90
2023-04-13T22:06:29.514Z,99.90
2023-04-13T22:08:56.183Z,99.90
2023-04-13T22:11:22.871Z,99.90
2023-04-13T22:13:49.571Z,99.90
2023-04-13T22:16:16.862Z,99.90
2023-04-13T22:18:43.585Z,99.90
2023-04-13T22:21:10.504Z,99.90
2023-04-13T22:23:37.247Z,99.90
2023-04-13T22:26:04.210Z,99.90
2023-04-13T22:28:31.522Z,99.90
2023-04-13T22:30:58.835Z,99.90
2023-04-13T22:33:25.737Z,99.90
2023-04-13T22:35:52.437Z,99.90
2023-04-13T22:38:19.568Z,99.90
2023-04-13T22:40:46.457Z,99.90
2023-04-13T22:43:13.122Z,99.90
2023-04-13T22:45:39.861Z,99.90
2023-04-13T22:48:06.775Z,99.90
2023-04-13T22:50:33.524Z,99.90
2023-04-13T22:53:00.177Z,99.90
2023-04-13T22:55:26.870Z,99.90
2023-04-13T22:57:53.553Z,99.90
2023-04-13T23:00:21.004Z,99.90
2023-04-13T23:02:50.255Z,99.90
2023-04-13T23:05:17.490Z,99.90
2023-04-13T23:07:44.276Z,99.90
2023-04-13T23:10:10.933Z,99.90
2023-04-13T23:12:37.630Z,99.90
2023-04-13T23:15:04.722Z,99.90
2023-04-13T23:17:31.437Z,99.90
2023-04-13T23:19:58.169Z,99.90
2023-04-13T23:22:24.802Z,99.90
2023-04-13T23:24:51.536Z,99.90
2023-04-13T23:27:18.329Z,99.90
2023-04-13T23:29:49.428Z,99.90
2023-04-13T23:32:16.288Z,99.90
2023-04-13T23:34:43.214Z,99.90
2023-04-13T23:37:09.941Z,99.90
2023-04-13T23:39:37.486Z,99.90
2023-04-13T23:42:04.298Z,99.90
2023-04-13T23:44:31.235Z,99.90
2023-04-13T23:46:57.888Z,99.90
2023-04-13T23:49:24.591Z,99.90
2023-04-13T23:51:51.335Z,99.90
2023-04-13T23:54:17.965Z,99.90
2023-04-13T23:56:44.584Z,99.90
2023-04-13T23:59:11.297Z,99.90
